sensor_id;sensor_type;location;lat;lon;timestamp;temperature;humidity
71128;SHT30;59249;59.736;30.568;2024-01-11T00:00:54;1.86;99.42
71128;SHT30;59249;59.736;30.568;2024-01-11T00:03:37;1.93;99.32
71128;SHT30;59249;59.736;30.568;2024-01-11T00:06:09;1.77;99.42
71128;SHT30;59249;59.736;30.568;2024-01-11T00:08:38;1.90;99.07
71128;SHT30;59249;59.736;30.568;2024-01-11T00:11:07;1.90;98.82
71128;SHT30;59249;59.736;30.568;2024-01-11T00:13:38;1.96;98.52
71128;SHT30;59249;59.736;30.568;2024-01-11T00:16:08;2.06;98.49
71128;SHT30;59249;59.736;30.568;2024-01-11T00:18:38;1.94;98.59
71128;SHT30;59249;59.736;30.568;2024-01-11T00:21:07;1.95;98.15
71128;SHT30;59249;59.736;30.568;2024-01-11T00:23:37;1.94;98.29
71128;SHT30;59249;59.736;30.568;2024-01-11T00:26:07;1.97;98.26
71128;SHT30;59249;59.736;30.568;2024-01-11T00:28:48;1.94;98.04
71128;SHT30;59249;59.736;30.568;2024-01-11T00:31:21;1.89;98.02
71128;SHT30;59249;59.736;30.568;2024-01-11T00:33:51;2.08;97.40
71128;SHT30;59249;59.736;30.568;2024-01-11T00:36:23;1.97;97.48
71128;SHT30;59249;59.736;30.568;2024-01-11T00:38:52;2.00;97.28
71128;SHT30;59249;59.736;30.568;2024-01-11T00:41:21;1.86;97.61
71128;SHT30;59249;59.736;30.568;2024-01-11T00:43:52;1.87;98.80
71128;SHT30;59249;59.736;30.568;2024-01-11T00:46:21;1.95;99.02
71128;SHT30;59249;59.736;30.568;2024-01-11T00:48:50;1.84;99.52
71128;SHT30;59249;59.736;30.568;2024-01-11T00:51:23;1.60;99.99
71128;SHT30;59249;59.736;30.568;2024-01-11T00:53:52;1.56;99.99
71128;SHT30;59249;59.736;30.568;2024-01-11T00:56:23;1.62;99.99
71128;SHT30;59249;59.736;30.568;2024-01-11T00:58:55;1.55;99.99
71128;SHT30;59249;59.736;30.568;2024-01-11T01:01:24;1.67;99.99
71128;SHT30;59249;59.736;30.568;2024-01-11T01:03:53;1.64;99.99
71128;SHT30;59249;59.736;30.568;2024-01-11T01:06:22;1.69;99.99
71128;SHT30;59249;59.736;30.568;2024-01-11T01:08:52;1.69;99.96
71128;SHT30;59249;59.736;30.568;2024-01-11T01:11:31;1.62;99.99
71128;SHT30;59249;59.736;30.568;2024-01-11T01:14:13;1.83;99.99
71128;SHT30;59249;59.736;30.568;2024-01-11T01:16:44;1.66;99.99
71128;SHT30;59249;59.736;30.568;2024-01-11T01:19:18;1.61;99.99
71128;SHT30;59249;59.736;30.568;2024-01-11T01:21:53;1.67;99.99
71128;SHT30;59249;59.736;30.568;2024-01-11T01:24:42;1.51;99.99
71128;SHT30;59249;59.736;30.568;2024-01-11T01:27:11;1.52;99.99
71128;SHT30;59249;59.736;30.568;2024-01-11T01:29:44;1.46;99.99
71128;SHT30;59249;59.736;30.568;2024-01-11T01:32:34;1.56;99.99
71128;SHT30;59249;59.736;30.568;2024-01-11T01:35:08;1.48;99.99
71128;SHT30;59249;59.736;30.568;2024-01-11T01:37:44;1.47;99.99
71128;SHT30;59249;59.736;30.568;2024-01-11T01:40:16;1.51;99.99
71128;SHT30;59249;59.736;30.568;2024-01-11T01:42:58;1.63;99.99
71128;SHT30;59249;59.736;30.568;2024-01-11T01:45:29;1.62;99.67
71128;SHT30;59249;59.736;30.568;2024-01-11T01:47:59;1.62;99.67
71128;SHT30;59249;59.736;30.568;2024-01-11T01:50:29;1.67;98.88
71128;SHT30;59249;59.736;30.568;2024-01-11T01:53:00;1.60;98.06
71128;SHT30;59249;59.736;30.568;2024-01-11T01:55:31;1.59;97.10
71128;SHT30;59249;59.736;30.568;2024-01-11T01:58:03;1.67;97.39
71128;SHT30;59249;59.736;30.568;2024-01-11T02:00:34;1.60;97.61
71128;SHT30;59249;59.736;30.568;2024-01-11T02:03:04;1.62;97.05
71128;SHT30;59249;59.736;30.568;2024-01-11T02:05:35;1.65;95.97
71128;SHT30;59249;59.736;30.568;2024-01-11T02:08:08;1.61;95.46
71128;SHT30;59249;59.736;30.568;2024-01-11T02:10:41;1.71;96.55
71128;SHT30;59249;59.736;30.568;2024-01-11T02:13:11;1.45;98.45
71128;SHT30;59249;59.736;30.568;2024-01-11T02:15:43;1.26;98.37
71128;SHT30;59249;59.736;30.568;2024-01-11T02:18:12;1.30;97.98
71128;SHT30;59249;59.736;30.568;2024-01-11T02:20:43;1.36;97.22
71128;SHT30;59249;59.736;30.568;2024-01-11T02:23:17;1.28;94.79
71128;SHT30;59249;59.736;30.568;2024-01-11T02:25:48;1.27;93.11
71128;SHT30;59249;59.736;30.568;2024-01-11T02:28:20;1.24;90.64
71128;SHT30;59249;59.736;30.568;2024-01-11T02:30:58;1.37;89.16
71128;SHT30;59249;59.736;30.568;2024-01-11T02:33:36;1.33;88.62
71128;SHT30;59249;59.736;30.568;2024-01-11T02:36:08;1.36;86.75
71128;SHT30;59249;59.736;30.568;2024-01-11T02:38:48;1.08;87.48
71128;SHT30;59249;59.736;30.568;2024-01-11T02:41:26;1.09;85.24
71128;SHT30;59249;59.736;30.568;2024-01-11T02:43:59;1.03;84.82
71128;SHT30;59249;59.736;30.568;2024-01-11T02:46:30;1.07;84.40
71128;SHT30;59249;59.736;30.568;2024-01-11T02:49:05;1.10;83.62
71128;SHT30;59249;59.736;30.568;2024-01-11T02:51:36;1.08;83.57
71128;SHT30;59249;59.736;30.568;2024-01-11T02:54:10;0.89;84.74
71128;SHT30;59249;59.736;30.568;2024-01-11T02:57:12;0.71;84.88
71128;SHT30;59249;59.736;30.568;2024-01-11T03:00:12;0.85;83.17
71128;SHT30;59249;59.736;30.568;2024-01-11T03:02:45;0.64;82.90
71128;SHT30;59249;59.736;30.568;2024-01-11T03:05:24;0.54;83.45
71128;SHT30;59249;59.736;30.568;2024-01-11T03:07:57;0.55;83.58
71128;SHT30;59249;59.736;30.568;2024-01-11T03:10:31;0.48;83.28
71128;SHT30;59249;59.736;30.568;2024-01-11T03:13:10;0.41;83.19
71128;SHT30;59249;59.736;30.568;2024-01-11T03:15:40;0.44;83.92
71128;SHT30;59249;59.736;30.568;2024-01-11T03:18:10;0.31;83.96
71128;SHT30;59249;59.736;30.568;2024-01-11T03:20:40;0.47;83.92
71128;SHT30;59249;59.736;30.568;2024-01-11T03:23:09;0.25;84.80
71128;SHT30;59249;59.736;30.568;2024-01-11T03:25:41;0.44;84.60
71128;SHT30;59249;59.736;30.568;2024-01-11T03:28:12;0.44;85.03
71128;SHT30;59249;59.736;30.568;2024-01-11T03:30:41;0.29;85.40
71128;SHT30;59249;59.736;30.568;2024-01-11T03:33:14;0.32;84.87
71128;SHT30;59249;59.736;30.568;2024-01-11T03:35:49;0.32;83.51
71128;SHT30;59249;59.736;30.568;2024-01-11T03:38:26;0.29;83.49
71128;SHT30;59249;59.736;30.568;2024-01-11T03:40:59;0.00;84.87
71128;SHT30;59249;59.736;30.568;2024-01-11T03:43:37;-0.19;86.15
71128;SHT30;59249;59.736;30.568;2024-01-11T03:46:10;-0.19;87.27
71128;SHT30;59249;59.736;30.568;2024-01-11T03:48:43;-0.39;86.39
71128;SHT30;59249;59.736;30.568;2024-01-11T03:51:14;-0.45;84.56
71128;SHT30;59249;59.736;30.568;2024-01-11T03:53:45;-0.31;83.45
71128;SHT30;59249;59.736;30.568;2024-01-11T03:56:26;-0.46;82.56
71128;SHT30;59249;59.736;30.568;2024-01-11T03:59:17;-0.18;80.23
71128;SHT30;59249;59.736;30.568;2024-01-11T04:01:49;-0.26;79.85
71128;SHT30;59249;59.736;30.568;2024-01-11T04:04:23;-0.47;80.05
71128;SHT30;59249;59.736;30.568;2024-01-11T04:06:59;-0.35;79.68
71128;SHT30;59249;59.736;30.568;2024-01-11T04:09:33;-0.46;78.86
71128;SHT30;59249;59.736;30.568;2024-01-11T04:12:05;-0.46;78.49
71128;SHT30;59249;59.736;30.568;2024-01-11T04:14:39;-0.61;78.92
71128;SHT30;59249;59.736;30.568;2024-01-11T04:17:09;-0.46;79.09
71128;SHT30;59249;59.736;30.568;2024-01-11T04:19:39;-0.64;80.79
71128;SHT30;59249;59.736;30.568;2024-01-11T04:22:08;-0.78;81.81
71128;SHT30;59249;59.736;30.568;2024-01-11T04:24:37;-0.94;83.24
71128;SHT30;59249;59.736;30.568;2024-01-11T04:27:06;-1.04;83.74
71128;SHT30;59249;59.736;30.568;2024-01-11T04:29:36;-1.20;83.92
71128;SHT30;59249;59.736;30.568;2024-01-11T04:32:07;-1.39;84.42
71128;SHT30;59249;59.736;30.568;2024-01-11T04:34:41;-1.53;84.83
71128;SHT30;59249;59.736;30.568;2024-01-11T04:37:18;-1.66;83.51
71128;SHT30;59249;59.736;30.568;2024-01-11T04:39:53;-1.59;80.99
71128;SHT30;59249;59.736;30.568;2024-01-11T04:42:23;-1.57;79.69
71128;SHT30;59249;59.736;30.568;2024-01-11T04:45:20;-1.73;77.70
71128;SHT30;59249;59.736;30.568;2024-01-11T04:47:53;-1.74;75.76
71128;SHT30;59249;59.736;30.568;2024-01-11T04:50:28;-1.86;74.37
71128;SHT30;59249;59.736;30.568;2024-01-11T04:53:07;-1.85;74.34
71128;SHT30;59249;59.736;30.568;2024-01-11T04:55:41;-1.95;74.74
71128;SHT30;59249;59.736;30.568;2024-01-11T04:58:22;-1.92;74.45
71128;SHT30;59249;59.736;30.568;2024-01-11T05:00:58;-2.13;75.76
71128;SHT30;59249;59.736;30.568;2024-01-11T05:03:36;-2.32;76.57
71128;SHT30;59249;59.736;30.568;2024-01-11T05:06:16;-2.29;76.58
71128;SHT30;59249;59.736;30.568;2024-01-11T05:08:50;-2.34;76.90
71128;SHT30;59249;59.736;30.568;2024-01-11T05:11:21;-2.36;78.14
71128;SHT30;59249;59.736;30.568;2024-01-11T05:13:56;-2.45;78.37
71128;SHT30;59249;59.736;30.568;2024-01-11T05:16:30;-2.61;79.34
71128;SHT30;59249;59.736;30.568;2024-01-11T05:19:05;-2.62;80.34
71128;SHT30;59249;59.736;30.568;2024-01-11T05:21:36;-2.57;81.35
71128;SHT30;59249;59.736;30.568;2024-01-11T05:24:15;-2.66;82.50
71128;SHT30;59249;59.736;30.568;2024-01-11T05:26:47;-2.85;83.96
71128;SHT30;59249;59.736;30.568;2024-01-11T05:29:16;-2.87;84.88
71128;SHT30;59249;59.736;30.568;2024-01-11T05:31:45;-2.88;85.70
71128;SHT30;59249;59.736;30.568;2024-01-11T05:34:16;-2.90;86.69
71128;SHT30;59249;59.736;30.568;2024-01-11T05:36:45;-3.05;87.60
71128;SHT30;59249;59.736;30.568;2024-01-11T05:39:14;-3.05;87.59
71128;SHT30;59249;59.736;30.568;2024-01-11T05:41:44;-3.16;87.07
71128;SHT30;59249;59.736;30.568;2024-01-11T05:44:13;-3.43;86.21
71128;SHT30;59249;59.736;30.568;2024-01-11T05:46:42;-3.36;84.21
71128;SHT30;59249;59.736;30.568;2024-01-11T05:49:12;-3.35;82.12
71128;SHT30;59249;59.736;30.568;2024-01-11T05:51:42;-3.23;80.50
71128;SHT30;59249;59.736;30.568;2024-01-11T05:54:11;-3.25;79.97
71128;SHT30;59249;59.736;30.568;2024-01-11T05:56:41;-3.07;78.77
71128;SHT30;59249;59.736;30.568;2024-01-11T05:59:11;-3.17;78.51
71128;SHT30;59249;59.736;30.568;2024-01-11T06:01:42;-3.25;78.79
71128;SHT30;59249;59.736;30.568;2024-01-11T06:04:12;-3.34;78.95
71128;SHT30;59249;59.736;30.568;2024-01-11T06:06:47;-3.32;78.02
71128;SHT30;59249;59.736;30.568;2024-01-11T06:09:19;-3.55;78.87
71128;SHT30;59249;59.736;30.568;2024-01-11T06:11:48;-3.76;81.48
71128;SHT30;59249;59.736;30.568;2024-01-11T06:14:29;-3.78;83.05
71128;SHT30;59249;59.736;30.568;2024-01-11T06:17:03;-3.72;83.62
71128;SHT30;59249;59.736;30.568;2024-01-11T06:19:34;-3.74;83.44
71128;SHT30;59249;59.736;30.568;2024-01-11T06:22:17;-3.92;82.52
71128;SHT30;59249;59.736;30.568;2024-01-11T06:24:53;-3.85;82.64
71128;SHT30;59249;59.736;30.568;2024-01-11T06:27:30;-4.00;82.56
71128;SHT30;59249;59.736;30.568;2024-01-11T06:29:59;-4.19;83.77
71128;SHT30;59249;59.736;30.568;2024-01-11T06:32:31;-4.20;83.70
71128;SHT30;59249;59.736;30.568;2024-01-11T06:35:01;-4.27;84.30
71128;SHT30;59249;59.736;30.568;2024-01-11T06:37:32;-4.38;84.76
71128;SHT30;59249;59.736;30.568;2024-01-11T06:40:01;-4.28;83.74
71128;SHT30;59249;59.736;30.568;2024-01-11T06:42:33;-4.34;81.71
71128;SHT30;59249;59.736;30.568;2024-01-11T06:45:05;-4.34;80.76
71128;SHT30;59249;59.736;30.568;2024-01-11T06:47:37;-4.22;81.03
71128;SHT30;59249;59.736;30.568;2024-01-11T06:50:14;-4.40;81.22
71128;SHT30;59249;59.736;30.568;2024-01-11T06:52:56;-4.53;81.50
71128;SHT30;59249;59.736;30.568;2024-01-11T06:55:28;-4.61;81.23
71128;SHT30;59249;59.736;30.568;2024-01-11T06:58:02;-4.65;81.03
71128;SHT30;59249;59.736;30.568;2024-01-11T07:00:32;-4.67;80.44
71128;SHT30;59249;59.736;30.568;2024-01-11T07:03:05;-4.68;80.40
71128;SHT30;59249;59.736;30.568;2024-01-11T07:05:40;-4.81;80.09
71128;SHT30;59249;59.736;30.568;2024-01-11T07:08:11;-4.84;79.66
71128;SHT30;59249;59.736;30.568;2024-01-11T07:10:40;-4.76;79.52
71128;SHT30;59249;59.736;30.568;2024-01-11T07:13:11;-4.83;79.55
71128;SHT30;59249;59.736;30.568;2024-01-11T07:15:47;-4.85;81.23
71128;SHT30;59249;59.736;30.568;2024-01-11T07:18:18;-4.99;83.70
71128;SHT30;59249;59.736;30.568;2024-01-11T07:20:48;-5.04;84.35
71128;SHT30;59249;59.736;30.568;2024-01-11T07:23:19;-4.94;84.19
71128;SHT30;59249;59.736;30.568;2024-01-11T07:25:48;-4.93;84.40
71128;SHT30;59249;59.736;30.568;2024-01-11T07:28:17;-4.86;85.04
71128;SHT30;59249;59.736;30.568;2024-01-11T07:30:54;-4.98;85.86
71128;SHT30;59249;59.736;30.568;2024-01-11T07:33:37;-4.96;86.04
71128;SHT30;59249;59.736;30.568;2024-01-11T07:36:12;-5.00;85.72
71128;SHT30;59249;59.736;30.568;2024-01-11T07:38:43;-5.00;85.40
71128;SHT30;59249;59.736;30.568;2024-01-11T07:41:13;-4.87;85.16
71128;SHT30;59249;59.736;30.568;2024-01-11T07:43:42;-5.07;83.97
71128;SHT30;59249;59.736;30.568;2024-01-11T07:46:23;-4.99;82.55
71128;SHT30;59249;59.736;30.568;2024-01-11T07:49:05;-4.99;81.21
71128;SHT30;59249;59.736;30.568;2024-01-11T07:51:38;-4.99;80.73
71128;SHT30;59249;59.736;30.568;2024-01-11T07:54:09;-4.93;80.56
71128;SHT30;59249;59.736;30.568;2024-01-11T07:56:38;-4.85;81.51
71128;SHT30;59249;59.736;30.568;2024-01-11T07:59:07;-5.00;83.64
71128;SHT30;59249;59.736;30.568;2024-01-11T08:01:41;-5.12;85.66
71128;SHT30;59249;59.736;30.568;2024-01-11T08:04:10;-4.95;85.82
71128;SHT30;59249;59.736;30.568;2024-01-11T08:06:40;-5.07;86.15
71128;SHT30;59249;59.736;30.568;2024-01-11T08:09:24;-5.09;86.52
71128;SHT30;59249;59.736;30.568;2024-01-11T08:11:55;-5.21;86.91
71128;SHT30;59249;59.736;30.568;2024-01-11T08:14:37;-5.26;86.23
71128;SHT30;59249;59.736;30.568;2024-01-11T08:17:13;-5.32;85.22
71128;SHT30;59249;59.736;30.568;2024-01-11T08:19:51;-5.28;84.03
71128;SHT30;59249;59.736;30.568;2024-01-11T08:22:23;-5.36;83.23
71128;SHT30;59249;59.736;30.568;2024-01-11T08:24:58;-5.26;83.24
71128;SHT30;59249;59.736;30.568;2024-01-11T08:27:33;-5.24;82.61
71128;SHT30;59249;59.736;30.568;2024-01-11T08:30:03;-5.29;82.35
71128;SHT30;59249;59.736;30.568;2024-01-11T08:32:35;-5.27;81.97
71128;SHT30;59249;59.736;30.568;2024-01-11T08:35:08;-5.18;82.11
71128;SHT30;59249;59.736;30.568;2024-01-11T08:37:40;-5.32;81.71
71128;SHT30;59249;59.736;30.568;2024-01-11T08:40:15;-5.40;81.22
71128;SHT30;59249;59.736;30.568;2024-01-11T08:42:58;-5.42;81.04
71128;SHT30;59249;59.736;30.568;2024-01-11T08:45:38;-5.41;81.41
71128;SHT30;59249;59.736;30.568;2024-01-11T08:48:13;-5.48;80.98
71128;SHT30;59249;59.736;30.568;2024-01-11T08:50:45;-5.53;80.89
71128;SHT30;59249;59.736;30.568;2024-01-11T08:53:18;-5.46;80.86
71128;SHT30;59249;59.736;30.568;2024-01-11T08:55:54;-5.42;80.63
71128;SHT30;59249;59.736;30.568;2024-01-11T08:58:25;-5.32;80.11
71128;SHT30;59249;59.736;30.568;2024-01-11T09:00:54;-5.32;79.55
71128;SHT30;59249;59.736;30.568;2024-01-11T09:03:32;-5.46;79.32
71128;SHT30;59249;59.736;30.568;2024-01-11T09:06:04;-5.56;79.19
71128;SHT30;59249;59.736;30.568;2024-01-11T09:08:35;-5.52;79.09
71128;SHT30;59249;59.736;30.568;2024-01-11T09:11:05;-5.54;78.91
71128;SHT30;59249;59.736;30.568;2024-01-11T09:13:34;-5.58;79.61
71128;SHT30;59249;59.736;30.568;2024-01-11T09:16:04;-5.58;79.88
71128;SHT30;59249;59.736;30.568;2024-01-11T09:18:35;-5.60;79.77
71128;SHT30;59249;59.736;30.568;2024-01-11T09:21:04;-5.81;79.75
71128;SHT30;59249;59.736;30.568;2024-01-11T09:23:37;-5.62;80.13
71128;SHT30;59249;59.736;30.568;2024-01-11T09:26:09;-5.56;79.88
71128;SHT30;59249;59.736;30.568;2024-01-11T09:28:47;-5.54;80.05
71128;SHT30;59249;59.736;30.568;2024-01-11T09:31:18;-5.55;79.77
71128;SHT30;59249;59.736;30.568;2024-01-11T09:33:50;-5.70;79.66
71128;SHT30;59249;59.736;30.568;2024-01-11T09:36:22;-5.64;79.07
71128;SHT30;59249;59.736;30.568;2024-01-11T09:38:56;-5.64;79.00
71128;SHT30;59249;59.736;30.568;2024-01-11T09:41:37;-5.65;79.02
71128;SHT30;59249;59.736;30.568;2024-01-11T09:44:16;-5.61;78.55
71128;SHT30;59249;59.736;30.568;2024-01-11T09:46:49;-5.62;78.78
71128;SHT30;59249;59.736;30.568;2024-01-11T09:49:23;-5.69;79.28
71128;SHT30;59249;59.736;30.568;2024-01-11T09:51:57;-5.75;79.48
71128;SHT30;59249;59.736;30.568;2024-01-11T09:54:28;-5.82;79.76
71128;SHT30;59249;59.736;30.568;2024-01-11T09:57:02;-5.67;79.85
71128;SHT30;59249;59.736;30.568;2024-01-11T09:59:38;-5.79;79.79
71128;SHT30;59249;59.736;30.568;2024-01-11T10:02:14;-5.79;79.15
71128;SHT30;59249;59.736;30.568;2024-01-11T10:05:02;-5.74;79.14
71128;SHT30;59249;59.736;30.568;2024-01-11T10:07:46;-5.83;78.96
71128;SHT30;59249;59.736;30.568;2024-01-11T10:10:25;-5.87;78.42
71128;SHT30;59249;59.736;30.568;2024-01-11T10:13:02;-5.96;79.02
71128;SHT30;59249;59.736;30.568;2024-01-11T10:15:41;-5.95;80.82
71128;SHT30;59249;59.736;30.568;2024-01-11T10:18:10;-5.88;80.92
71128;SHT30;59249;59.736;30.568;2024-01-11T10:20:42;-5.84;80.91
71128;SHT30;59249;59.736;30.568;2024-01-11T10:23:12;-5.84;79.36
71128;SHT30;59249;59.736;30.568;2024-01-11T10:25:47;-5.91;79.77
71128;SHT30;59249;59.736;30.568;2024-01-11T10:28:19;-5.85;81.35
71128;SHT30;59249;59.736;30.568;2024-01-11T10:30:51;-5.90;82.45
71128;SHT30;59249;59.736;30.568;2024-01-11T10:33:24;-5.88;82.97
71128;SHT30;59249;59.736;30.568;2024-01-11T10:35:56;-6.04;82.75
71128;SHT30;59249;59.736;30.568;2024-01-11T10:38:36;-6.07;83.40
71128;SHT30;59249;59.736;30.568;2024-01-11T10:41:08;-6.15;84.55
71128;SHT30;59249;59.736;30.568;2024-01-11T10:43:52;-6.00;83.91
71128;SHT30;59249;59.736;30.568;2024-01-11T10:46:26;-5.99;83.23
71128;SHT30;59249;59.736;30.568;2024-01-11T10:49:01;-6.05;82.59
71128;SHT30;59249;59.736;30.568;2024-01-11T10:51:34;-5.92;82.90
71128;SHT30;59249;59.736;30.568;2024-01-11T10:54:04;-6.06;83.10
71128;SHT30;59249;59.736;30.568;2024-01-11T10:56:34;-5.88;83.45
71128;SHT30;59249;59.736;30.568;2024-01-11T10:59:11;-5.96;84.12
71128;SHT30;59249;59.736;30.568;2024-01-11T11:01:42;-5.97;84.71
71128;SHT30;59249;59.736;30.568;2024-01-11T11:04:14;-6.04;84.57
71128;SHT30;59249;59.736;30.568;2024-01-11T11:06:46;-6.03;84.73
71128;SHT30;59249;59.736;30.568;2024-01-11T11:09:17;-6.16;84.39
71128;SHT30;59249;59.736;30.568;2024-01-11T11:11:47;-6.11;84.91
71128;SHT30;59249;59.736;30.568;2024-01-11T11:14:22;-6.18;85.21
71128;SHT30;59249;59.736;30.568;2024-01-11T11:17:04;-6.18;85.58
71128;SHT30;59249;59.736;30.568;2024-01-11T11:19:35;-6.18;85.92
71128;SHT30;59249;59.736;30.568;2024-01-11T11:22:06;-6.20;86.40
71128;SHT30;59249;59.736;30.568;2024-01-11T11:24:38;-6.25;86.23
71128;SHT30;59249;59.736;30.568;2024-01-11T11:27:07;-6.15;86.46
71128;SHT30;59249;59.736;30.568;2024-01-11T11:29:39;-6.18;86.52
71128;SHT30;59249;59.736;30.568;2024-01-11T11:32:10;-6.33;86.93
71128;SHT30;59249;59.736;30.568;2024-01-11T11:34:43;-6.28;87.25
71128;SHT30;59249;59.736;30.568;2024-01-11T11:37:23;-6.17;87.03
71128;SHT30;59249;59.736;30.568;2024-01-11T11:39:58;-6.34;87.78
71128;SHT30;59249;59.736;30.568;2024-01-11T11:42:31;-6.27;88.54
71128;SHT30;59249;59.736;30.568;2024-01-11T11:45:03;-6.21;88.79
71128;SHT30;59249;59.736;30.568;2024-01-11T11:47:35;-6.19;88.99
71128;SHT30;59249;59.736;30.568;2024-01-11T11:50:08;-6.16;88.74
71128;SHT30;59249;59.736;30.568;2024-01-11T11:52:40;-6.18;88.93
71128;SHT30;59249;59.736;30.568;2024-01-11T11:55:14;-6.21;89.23
71128;SHT30;59249;59.736;30.568;2024-01-11T11:57:51;-6.05;89.49
71128;SHT30;59249;59.736;30.568;2024-01-11T12:00:23;-6.13;89.01
71128;SHT30;59249;59.736;30.568;2024-01-11T12:02:56;-6.11;89.31
71128;SHT30;59249;59.736;30.568;2024-01-11T12:05:33;-6.10;89.38
71128;SHT30;59249;59.736;30.568;2024-01-11T12:08:07;-6.12;89.47
71128;SHT30;59249;59.736;30.568;2024-01-11T12:10:42;-6.05;89.93
71128;SHT30;59249;59.736;30.568;2024-01-11T12:13:30;-6.09;89.73
71128;SHT30;59249;59.736;30.568;2024-01-11T12:16:05;-5.99;89.95
71128;SHT30;59249;59.736;30.568;2024-01-11T12:18:35;-5.88;89.77
71128;SHT30;59249;59.736;30.568;2024-01-11T12:21:05;-5.95;89.10
71128;SHT30;59249;59.736;30.568;2024-01-11T12:23:38;-5.80;88.68
71128;SHT30;59249;59.736;30.568;2024-01-11T12:26:09;-5.81;88.67
71128;SHT30;59249;59.736;30.568;2024-01-11T12:28:44;-5.86;88.62
71128;SHT30;59249;59.736;30.568;2024-01-11T12:31:16;-5.86;88.75
71128;SHT30;59249;59.736;30.568;2024-01-11T12:33:51;-5.82;88.87
71128;SHT30;59249;59.736;30.568;2024-01-11T12:36:24;-5.80;88.83
71128;SHT30;59249;59.736;30.568;2024-01-11T12:38:54;-5.79;88.67
71128;SHT30;59249;59.736;30.568;2024-01-11T12:41:27;-5.75;88.72
71128;SHT30;59249;59.736;30.568;2024-01-11T12:43:59;-5.63;88.18
71128;SHT30;59249;59.736;30.568;2024-01-11T12:46:33;-5.61;87.99
71128;SHT30;59249;59.736;30.568;2024-01-11T12:49:03;-5.62;87.51
71128;SHT30;59249;59.736;30.568;2024-01-11T12:51:36;-5.61;86.91
71128;SHT30;59249;59.736;30.568;2024-01-11T12:54:12;-5.60;86.21
71128;SHT30;59249;59.736;30.568;2024-01-11T12:56:43;-5.62;85.34
71128;SHT30;59249;59.736;30.568;2024-01-11T12:59:13;-5.75;84.85
71128;SHT30;59249;59.736;30.568;2024-01-11T13:01:45;-5.70;85.22
71128;SHT30;59249;59.736;30.568;2024-01-11T13:04:15;-5.71;85.27
71128;SHT30;59249;59.736;30.568;2024-01-11T13:06:44;-5.86;86.06
71128;SHT30;59249;59.736;30.568;2024-01-11T13:09:13;-5.78;86.40
71128;SHT30;59249;59.736;30.568;2024-01-11T13:11:42;-5.88;86.05
71128;SHT30;59249;59.736;30.568;2024-01-11T13:14:12;-5.83;86.09
71128;SHT30;59249;59.736;30.568;2024-01-11T13:16:48;-5.72;85.89
71128;SHT30;59249;59.736;30.568;2024-01-11T13:19:26;-5.93;85.61
71128;SHT30;59249;59.736;30.568;2024-01-11T13:22:02;-5.91;85.68
71128;SHT30;59249;59.736;30.568;2024-01-11T13:24:32;-5.86;85.49
71128;SHT30;59249;59.736;30.568;2024-01-11T13:27:06;-5.79;85.46
71128;SHT30;59249;59.736;30.568;2024-01-11T13:29:37;-5.88;85.44
71128;SHT30;59249;59.736;30.568;2024-01-11T13:32:13;-5.99;85.87
71128;SHT30;59249;59.736;30.568;2024-01-11T13:34:55;-5.83;85.46
71128;SHT30;59249;59.736;30.568;2024-01-11T13:37:25;-5.93;84.27
71128;SHT30;59249;59.736;30.568;2024-01-11T13:40:07;-5.78;83.84
71128;SHT30;59249;59.736;30.568;2024-01-11T13:42:47;-5.93;84.44
71128;SHT30;59249;59.736;30.568;2024-01-11T13:45:41;-6.09;85.61
71128;SHT30;59249;59.736;30.568;2024-01-11T13:48:17;-6.17;85.49
71128;SHT30;59249;59.736;30.568;2024-01-11T13:50:50;-6.14;85.99
71128;SHT30;59249;59.736;30.568;2024-01-11T13:53:34;-6.16;86.29
71128;SHT30;59249;59.736;30.568;2024-01-11T13:56:11;-6.22;86.28
71128;SHT30;59249;59.736;30.568;2024-01-11T13:58:43;-6.11;86.48
71128;SHT30;59249;59.736;30.568;2024-01-11T14:01:18;-6.16;86.49
71128;SHT30;59249;59.736;30.568;2024-01-11T14:04:08;-6.08;86.72
71128;SHT30;59249;59.736;30.568;2024-01-11T14:06:42;-6.09;86.69
71128;SHT30;59249;59.736;30.568;2024-01-11T14:09:18;-6.11;86.60
71128;SHT30;59249;59.736;30.568;2024-01-11T14:11:59;-6.16;86.18
71128;SHT30;59249;59.736;30.568;2024-01-11T14:14:45;-6.22;85.98
71128;SHT30;59249;59.736;30.568;2024-01-11T14:17:16;-6.20;86.01
71128;SHT30;59249;59.736;30.568;2024-01-11T14:19:50;-6.12;86.40
71128;SHT30;59249;59.736;30.568;2024-01-11T14:22:21;-6.11;86.60
71128;SHT30;59249;59.736;30.568;2024-01-11T14:24:55;-5.98;86.38
71128;SHT30;59249;59.736;30.568;2024-01-11T14:27:36;-5.91;86.74
71128;SHT30;59249;59.736;30.568;2024-01-11T14:30:09;-5.81;86.63
71128;SHT30;59249;59.736;30.568;2024-01-11T14:32:42;-5.97;87.09
71128;SHT30;59249;59.736;30.568;2024-01-11T14:35:13;-5.91;87.14
71128;SHT30;59249;59.736;30.568;2024-01-11T14:37:42;-5.89;87.40
71128;SHT30;59249;59.736;30.568;2024-01-11T14:40:17;-6.03;87.18
71128;SHT30;59249;59.736;30.568;2024-01-11T14:42:51;-5.97;87.29
71128;SHT30;59249;59.736;30.568;2024-01-11T14:45:39;-5.97;87.19
71128;SHT30;59249;59.736;30.568;2024-01-11T14:48:15;-5.93;87.10
71128;SHT30;59249;59.736;30.568;2024-01-11T14:50:51;-5.89;87.03
71128;SHT30;59249;59.736;30.568;2024-01-11T14:53:25;-5.92;86.87
71128;SHT30;59249;59.736;30.568;2024-01-11T14:56:08;-5.92;86.85
71128;SHT30;59249;59.736;30.568;2024-01-11T14:58:54;-5.80;85.38
71128;SHT30;59249;59.736;30.568;2024-01-11T15:01:33;-5.89;85.44
71128;SHT30;59249;59.736;30.568;2024-01-11T15:04:04;-5.94;85.87
71128;SHT30;59249;59.736;30.568;2024-01-11T15:06:50;-5.97;85.95
71128;SHT30;59249;59.736;30.568;2024-01-11T15:09:23;-5.97;85.44
71128;SHT30;59249;59.736;30.568;2024-01-11T15:11:54;-5.98;85.28
71128;SHT30;59249;59.736;30.568;2024-01-11T15:14:33;-5.76;84.75
71128;SHT30;59249;59.736;30.568;2024-01-11T15:17:03;-5.78;84.31
71128;SHT30;59249;59.736;30.568;2024-01-11T15:19:32;-5.74;84.57
71128;SHT30;59249;59.736;30.568;2024-01-11T15:22:03;-5.74;84.56
71128;SHT30;59249;59.736;30.568;2024-01-11T15:24:36;-5.83;85.13
71128;SHT30;59249;59.736;30.568;2024-01-11T15:27:20;-5.86;85.57
71128;SHT30;59249;59.736;30.568;2024-01-11T15:29:51;-5.81;85.29
71128;SHT30;59249;59.736;30.568;2024-01-11T15:32:24;-5.79;84.59
71128;SHT30;59249;59.736;30.568;2024-01-11T15:34:56;-5.88;84.64
71128;SHT30;59249;59.736;30.568;2024-01-11T15:37:38;-5.85;84.58
71128;SHT30;59249;59.736;30.568;2024-01-11T15:40:14;-5.86;84.22
71128;SHT30;59249;59.736;30.568;2024-01-11T15:42:54;-5.89;84.14
71128;SHT30;59249;59.736;30.568;2024-01-11T15:45:24;-5.93;84.36
71128;SHT30;59249;59.736;30.568;2024-01-11T15:47:55;-5.88;84.72
71128;SHT30;59249;59.736;30.568;2024-01-11T15:50:36;-5.99;84.81
71128;SHT30;59249;59.736;30.568;2024-01-11T15:53:12;-5.93;84.53
71128;SHT30;59249;59.736;30.568;2024-01-11T15:55:42;-6.07;84.80
71128;SHT30;59249;59.736;30.568;2024-01-11T15:58:13;-6.14;83.93
71128;SHT30;59249;59.736;30.568;2024-01-11T16:00:45;-6.19;83.33